Time;durP1;ratioP1;P1;durP2;ratioP2;P2;SDS_P1;SDS_P2;PMS_P1;PMS_P2;Temp;Humidity;BMP_temperature;BMP_pressure;BME280_temperature;BME280_humidity;BME280_pressure;Samples;Min_cycle;Max_cycle;Signal;HPM_P1;HPM_P2
2023/08/07 00:00:16;;;;;;;1.33;0.80;;;;;;;9.34;89.63;95617.41;2066683;28;20054;-61
2023/08/07 00:01:17;;;;;;;0.98;0.70;;;;;;;9.28;89.33;95622.91;2066528;28;20041;-61
2023/08/07 00:02:19;;;;;;;2.45;0.93;;;;;;;9.33;89.46;95626.13;2058352;28;20050;-61
2023/08/07 00:03:20;;;;;;;1.33;0.65;;;;;;;9.31;90.08;95627.94;2057935;28;20123;-61
2023/08/07 00:04:21;;;;;;;1.20;0.88;;;;;;;9.27;90.80;95622.06;2066461;28;20061;-61
2023/08/07 00:05:25;;;;;;;2.75;1.10;;;;;;;9.28;90.76;95628.09;2066088;28;20054;-61
2023/08/07 00:06:26;;;;;;;1.10;0.88;;;;;;;9.25;90.62;95623.91;2066348;28;20054;-60
2023/08/07 00:07:27;;;;;;;1.50;0.70;;;;;;;9.27;90.30;95618.63;2066085;28;20050;-60
2023/08/07 00:08:30;;;;;;;1.95;1.05;;;;;;;9.27;90.99;95631.56;2066657;28;20050;-60
2023/08/07 00:09:31;;;;;;;4.03;1.17;;;;;;;9.23;91.09;95640.44;2066051;28;20061;-60
2023/08/07 00:10:33;;;;;;;2.60;1.02;;;;;;;9.22;91.41;95628.38;2066180;28;20054;-61
2023/08/07 00:11:34;;;;;;;1.88;0.90;;;;;;;9.21;91.84;95626.69;2065682;28;20054;-61
2023/08/07 00:12:35;;;;;;;1.95;0.93;;;;;;;9.15;91.22;95603.69;2066751;28;20046;-62
2023/08/07 00:13:36;;;;;;;3.13;0.63;;;;;;;9.15;91.45;95611.44;2065925;28;20046;-61
2023/08/07 00:14:38;;;;;;;1.58;0.82;;;;;;;9.19;91.88;95629.34;2066479;28;20066;-62
2023/08/07 00:15:39;;;;;;;3.22;1.40;;;;;;;9.20;92.88;95625.88;2066749;28;20065;-62
2023/08/07 00:16:41;;;;;;;3.47;1.10;;;;;;;9.13;92.77;95618.44;2066734;28;20050;-63
2023/08/07 00:17:42;;;;;;;3.75;1.27;;;;;;;9.16;92.30;95629.50;2066178;28;20050;-62
2023/08/07 00:18:43;;;;;;;2.42;1.10;;;;;;;9.13;92.76;95639.19;2066569;28;20061;-62
2023/08/07 00:19:44;;;;;;;2.30;0.90;;;;;;;9.11;92.88;95626.28;2066543;28;20062;-62
2023/08/07 00:20:45;;;;;;;4.13;1.00;;;;;;;9.13;92.86;95621.03;2066596;28;20487;-62
2023/08/07 00:21:47;;;;;;;1.92;1.00;;;;;;;9.13;93.81;95634.00;2066040;28;20070;-63
2023/08/07 00:22:48;;;;;;;2.03;1.08;;;;;;;9.14;93.07;95630.47;2066313;28;20492;-62
2023/08/07 00:23:49;;;;;;;1.90;0.98;;;;;;;9.15;91.96;95577.78;2066529;28;20046;-63
2023/08/07 00:24:50;;;;;;;3.10;1.30;;;;;;;9.17;92.48;95636.38;2065213;28;20055;-63
2023/08/07 00:25:52;;;;;;;2.08;1.10;;;;;;;9.12;93.19;95633.16;2066620;28;20054;-63
2023/08/07 00:26:53;;;;;;;2.22;1.10;;;;;;;9.10;93.73;95609.06;2066294;28;20061;-65
2023/08/07 00:27:54;;;;;;;2.45;1.23;;;;;;;9.12;93.43;95632.31;2057725;28;20059;-63
2023/08/07 00:28:55;;;;;;;4.32;1.40;;;;;;;9.13;93.76;95632.22;2057875;28;20066;-63
2023/08/07 00:29:57;;;;;;;2.10;1.20;;;;;;;9.13;93.45;95628.81;2066134;28;20050;-63
2023/08/07 00:30:58;;;;;;;2.00;1.10;;;;;;;9.11;93.64;95625.44;2066058;28;20054;-63
2023/08/07 00:31:59;;;;;;;2.65;1.00;;;;;;;9.12;93.89;95621.97;2066566;28;20051;-62
2023/08/07 00:33:00;;;;;;;1.60;0.93;;;;;;;9.10;94.08;95616.00;2066516;28;20050;-63
2023/08/07 00:34:03;;;;;;;3.08;1.42;;;;;;;9.13;93.52;95618.44;2057200;28;20046;-62
2023/08/07 00:35:05;;;;;;;1.55;1.10;;;;;;;9.12;93.67;95627.16;2057956;28;20046;-63
2023/08/07 00:36:07;;;;;;;1.75;1.17;;;;;;;9.10;93.54;95595.28;2066216;28;20046;-63
2023/08/07 00:37:08;;;;;;;1.77;1.00;;;;;;;9.09;93.47;95632.44;2066631;28;20054;-63
2023/08/07 00:38:09;;;;;;;2.78;1.02;;;;;;;9.08;94.65;95635.97;2057583;28;20058;-63
2023/08/07 00:39:11;;;;;;;3.25;1.27;;;;;;;9.05;94.41;95614.47;2057615;28;20062;-63
2023/08/07 00:40:15;;;;;;;4.22;1.25;;;;;;;9.07;94.26;95626.53;2065443;28;20046;-63
2023/08/07 00:41:16;;;;;;;3.20;1.58;;;;;;;9.08;94.77;95633.38;2057643;28;20058;-63
2023/08/07 00:42:18;;;;;;;2.33;1.27;;;;;;;9.06;94.78;95633.44;2057335;28;20054;-63
2023/08/07 00:43:19;;;;;;;1.42;0.93;;;;;;;9.04;94.64;95624.91;2066488;28;20054;-62
2023/08/07 00:44:21;;;;;;;3.55;1.35;;;;;;;9.03;94.84;95612.84;2066101;28;20414;-63
2023/08/07 00:45:22;;;;;;;2.10;1.38;;;;;;;9.04;94.92;95625.75;2066587;28;20047;-63
2023/08/07 00:46:23;;;;;;;2.50;1.23;;;;;;;9.02;94.99;95632.75;2057730;28;20077;-63
2023/08/07 00:47:24;;;;;;;4.25;1.60;;;;;;;9.02;95.24;95627.56;2057555;28;20521;-63
2023/08/07 00:48:26;;;;;;;3.03;1.13;;;;;;;8.99;95.75;95622.53;2057755;28;20055;-63
2023/08/07 00:49:27;;;;;;;2.97;1.45;;;;;;;9.00;95.66;95621.59;2056904;28;20059;-64
2023/08/07 00:50:28;;;;;;;3.78;1.20;;;;;;;9.01;95.79;95625.91;2065164;28;20055;-63
2023/08/07 00:51:30;;;;;;;2.53;1.38;;;;;;;8.97;95.24;95616.56;2066379;28;20062;-63
2023/08/07 00:52:31;;;;;;;3.28;1.08;;;;;;;9.02;95.03;95614.59;2066044;28;20050;-64
2023/08/07 00:53:33;;;;;;;5.00;1.30;;;;;;;9.03;94.91;95608.53;2066297;28;20080;-63
2023/08/07 00:54:34;;;;;;;4.28;1.23;;;;;;;9.02;95.51;95634.50;2057704;28;20055;-63
2023/08/07 00:55:35;;;;;;;3.97;1.20;;;;;;;8.96;95.24;95614.06;2057655;28;20051;-63
2023/08/07 00:56:36;;;;;;;4.28;1.65;;;;;;;9.02;95.87;95632.75;2049818;28;20058;-63
2023/08/07 00:57:37;;;;;;;3.25;1.27;;;;;;;9.01;95.71;95632.84;2041589;29;20055;-63
2023/08/07 00:58:39;;;;;;;2.95;1.10;;;;;;;8.98;95.69;95631.22;2056692;28;20062;-62
2023/08/07 00:59:40;;;;;;;3.95;1.30;;;;;;;8.99;95.83;95627.72;2057548;28;20131;-63
2023/08/07 01:00:42;;;;;;;2.65;1.52;;;;;;;8.99;96.00;95629.47;2049470;28;20062;-63
2023/08/07 01:01:43;;;;;;;2.28;1.40;;;;;;;8.99;95.58;95632.88;2050014;28;20102;-63
2023/08/07 01:02:44;;;;;;;2.63;0.90;;;;;;;9.00;95.98;95628.53;2049528;29;20110;-64
2023/08/07 01:03:46;;;;;;;3.65;1.52;;;;;;;9.01;96.01;95628.47;2057425;28;20065;-63
2023/08/07 01:04:47;;;;;;;2.22;1.38;;;;;;;9.01;95.78;95579.28;2065380;28;20054;-63
2023/08/07 01:05:48;;;;;;;2.40;1.20;;;;;;;9.00;96.07;95634.56;2065730;28;20070;-63
2023/08/07 01:06:49;;;;;;;2.63;0.93;;;;;;;9.00;95.26;95628.53;2056099;28;20054;-63
2023/08/07 01:07:54;;;;;;;2.92;1.52;;;;;;;9.01;95.39;95641.44;2050015;28;20427;-63
2023/08/07 01:08:55;;;;;;;2.58;1.55;;;;;;;9.02;96.08;95637.09;2057916;28;20046;-62
2023/08/07 01:09:57;;;;;;;3.78;1.38;;;;;;;9.01;95.77;95631.06;2049335;29;20059;-63
2023/08/07 01:11:17;;;;;;;2.78;1.13;;;;;;;9.02;95.72;95606.84;2049906;28;20062;-63
2023/08/07 01:12:19;;;;;;;2.60;1.60;;;;;;;9.02;95.32;95630.16;2066215;28;20054;-62
2023/08/07 01:13:28;;;;;;;2.60;1.25;;;;;;;9.03;95.30;95629.25;2057520;28;20058;-62
2023/08/07 01:14:55;;;;;;;1.13;0.80;;;;;;;9.04;94.73;95630.09;2058950;28;20438;-62
2023/08/07 01:15:59;;;;;;;3.70;1.27;;;;;;;9.02;94.29;95634.50;2066202;28;20402;-61
2023/08/07 01:17:11;;;;;;;4.38;1.35;;;;;;;9.04;93.87;95641.28;2065509;28;20066;-61
2023/08/07 01:18:12;;;;;;;2.85;1.40;;;;;;;9.05;94.07;95626.56;2057655;28;20043;-61
2023/08/07 01:19:31;;;;;;;2.65;1.00;;;;;;;9.05;94.09;95642.94;2049470;28;20051;-60
2023/08/07 01:20:32;;;;;;;2.33;1.17;;;;;;;9.04;94.03;95620.56;2051413;28;20055;-60
2023/08/07 01:21:33;;;;;;;2.38;0.98;;;;;;;9.07;94.03;95629.94;2057259;28;20059;-60
2023/08/07 01:22:35;;;;;;;2.42;1.25;;;;;;;9.08;94.20;95625.59;2049153;28;20055;-61
2023/08/07 01:23:36;;;;;;;3.13;1.20;;;;;;;9.07;93.57;95629.13;2049422;29;20066;-60
2023/08/07 01:24:37;;;;;;;2.45;1.17;;;;;;;9.06;93.12;95623.06;2057440;28;20050;-60
2023/08/07 01:25:39;;;;;;;3.35;1.23;;;;;;;9.09;93.10;95633.31;2065473;28;20116;-60
2023/08/07 01:26:40;;;;;;;2.10;1.25;;;;;;;9.09;94.30;95647.97;2065238;28;20061;-60
2023/08/07 01:27:52;;;;;;;1.85;1.10;;;;;;;9.08;93.41;95635.97;2057217;28;20062;-60
2023/08/07 01:29:18;;;;;;;1.48;1.00;;;;;;;9.11;93.37;95641.00;2058808;28;20507;-60
2023/08/07 01:30:33;;;;;;;2.63;1.15;;;;;;;9.11;92.51;95641.00;2056583;28;20575;-60
2023/08/07 01:31:34;;;;;;;2.88;1.20;;;;;;;9.12;92.68;95635.75;2058918;28;20051;-60
2023/08/07 01:32:41;;;;;;;2.70;1.10;;;;;;;9.11;92.42;95641.81;2065214;28;20403;-60
2023/08/07 01:33:48;;;;;;;1.35;0.75;;;;;;;9.12;91.62;95634.91;2065341;28;20066;-60
2023/08/07 01:34:49;;;;;;;1.67;0.82;;;;;;;9.12;92.03;95640.94;2049245;29;20063;-61
2023/08/07 01:35:53;;;;;;;2.25;1.23;;;;;;;9.11;92.18;95653.94;2049408;28;20444;-61
2023/08/07 01:36:54;;;;;;;3.80;1.38;;;;;;;9.07;92.32;95645.47;2050150;28;20054;-61
2023/08/07 01:37:56;;;;;;;1.77;0.80;;;;;;;9.02;92.86;95643.09;2065606;28;20489;-61
2023/08/07 01:38:57;;;;;;;2.25;1.20;;;;;;;9.08;92.61;95636.78;2065331;28;20046;-61
2023/08/07 01:39:59;;;;;;;4.03;1.00;;;;;;;9.12;91.89;95593.47;2041308;29;20047;-59
2023/08/07 01:41:02;;;;;;;2.85;1.08;;;;;;;9.08;91.40;95625.59;2042112;28;20400;-60
2023/08/07 01:42:04;;;;;;;2.67;1.13;;;;;;;9.09;92.02;95643.66;2057377;28;20050;-60
2023/08/07 01:43:06;;;;;;;3.28;1.05;;;;;;;9.09;92.55;95663.53;2056716;28;20054;-59
2023/08/07 01:44:07;;;;;;;3.55;1.13;;;;;;;9.07;92.54;95657.59;2049047;28;20499;-59
2023/08/07 01:45:08;;;;;;;3.35;1.20;;;;;;;9.04;93.10;95649.06;2041539;29;20425;-59
2023/08/07 01:46:10;;;;;;;4.03;1.17;;;;;;;9.08;92.31;95654.09;2048524;28;20508;-59
2023/08/07 01:47:12;;;;;;;3.05;1.40;;;;;;;9.10;91.64;95644.50;2049261;28;20051;-59
2023/08/07 01:48:13;;;;;;;2.90;1.33;;;;;;;9.09;91.98;95648.84;2057114;28;20534;-59
2023/08/07 01:49:14;;;;;;;2.67;1.15;;;;;;;9.10;91.83;95649.69;2056619;28;20051;-59
2023/08/07 01:50:15;;;;;;;3.35;1.58;;;;;;;9.09;92.37;95661.81;2049094;29;20062;-59
2023/08/07 01:51:17;;;;;;;1.77;0.88;;;;;;;9.10;91.43;95660.03;2056944;28;20546;-59
2023/08/07 01:52:20;;;;;;;1.35;0.82;;;;;;;9.12;90.92;95655.63;2065692;28;20486;-60
2023/08/07 01:53:21;;;;;;;3.25;1.00;;;;;;;9.10;90.93;95657.44;2064790;28;20065;-59
2023/08/07 01:54:22;;;;;;;4.20;1.00;;;;;;;9.14;90.67;95658.97;2065163;28;20058;-59
2023/08/07 01:55:24;;;;;;;2.63;1.00;;;;;;;9.15;90.79;95658.09;2065023;28;20058;-59
2023/08/07 01:56:26;;;;;;;3.17;1.30;;;;;;;9.11;91.45;95652.19;2065078;28;20478;-59
2023/08/07 01:57:28;;;;;;;1.50;0.90;;;;;;;9.16;90.59;95652.81;2056343;28;20047;-59
2023/08/07 01:58:29;;;;;;;5.68;1.67;;;;;;;9.15;91.01;95658.09;2048343;29;20070;-60
2023/08/07 01:59:30;;;;;;;2.70;0.90;;;;;;;9.15;91.27;95665.84;2056253;28;20569;-59
2023/08/07 02:00:32;;;;;;;3.88;1.13;;;;;;;9.15;91.14;95655.50;2056740;28;20518;-59
2023/08/07 02:01:33;;;;;;;3.78;1.20;;;;;;;9.11;90.88;95653.94;2056846;28;20515;-60
2023/08/07 02:02:35;;;;;;;2.42;1.10;;;;;;;9.16;90.31;95660.59;2065519;28;20054;-59
2023/08/07 02:03:37;;;;;;;3.13;1.40;;;;;;;9.18;91.23;95665.72;2065599;28;20055;-59
2023/08/07 02:04:38;;;;;;;3.17;0.85;;;;;;;9.16;91.11;95667.53;2064628;28;20495;-59
2023/08/07 02:05:39;;;;;;;3.38;1.10;;;;;;;9.19;90.16;95654.41;2064912;28;20478;-59
2023/08/07 02:06:41;;;;;;;4.75;1.73;;;;;;;9.21;90.40;95663.81;2064691;28;20042;-59
2023/08/07 02:07:42;;;;;;;3.83;1.30;;;;;;;9.18;90.75;95660.53;2065434;28;20372;-60
2023/08/07 02:08:43;;;;;;;2.95;1.25;;;;;;;9.19;89.77;95654.41;2056232;28;20057;-59
2023/08/07 02:09:47;;;;;;;3.17;1.15;;;;;;;9.15;89.64;95655.50;2057197;28;20510;-59
2023/08/07 02:10:48;;;;;;;4.07;1.27;;;;;;;9.19;89.98;95657.00;2065003;28;20061;-59
2023/08/07 02:11:49;;;;;;;1.33;0.60;;;;;;;9.22;89.36;95664.63;2064990;28;20046;-59
2023/08/07 02:12:51;;;;;;;3.22;1.65;;;;;;;9.18;89.56;95655.34;2064961;28;20058;-59
2023/08/07 02:13:52;;;;;;;1.95;1.02;;;;;;;9.23;89.62;95669.75;2064476;28;20059;-59
2023/08/07 02:14:54;;;;;;;2.83;1.20;;;;;;;9.26;88.59;95673.97;2056504;28;20055;-59
2023/08/07 02:15:55;;;;;;;1.85;1.15;;;;;;;9.26;88.98;95661.00;2048183;28;20404;-59
2023/08/07 02:16:56;;;;;;;1.27;0.75;;;;;;;9.28;88.79;95664.38;2056821;28;20051;-58
2023/08/07 02:17:58;;;;;;;3.42;0.95;;;;;;;9.28;87.96;95657.44;2064976;28;20065;-59
2023/08/07 02:18:59;;;;;;;2.38;1.17;;;;;;;9.31;88.18;95664.22;2056981;28;20049;-59
2023/08/07 02:20:01;;;;;;;1.73;0.90;;;;;;;9.32;87.49;95649.50;2056797;28;20058;-58
2023/08/07 02:21:02;;;;;;;3.60;1.08;;;;;;;9.35;88.01;95652.78;2056813;28;20057;-59
2023/08/07 02:22:03;;;;;;;1.95;1.00;;;;;;;9.35;88.17;95670.09;2064396;28;20054;-59
2023/08/07 02:23:05;;;;;;;5.22;2.25;;;;;;;9.34;88.24;95671.84;2065487;28;20379;-59
2023/08/07 02:24:06;;;;;;;2.50;0.90;;;;;;;9.36;87.99;95676.97;2064975;28;20042;-59
2023/08/07 02:25:08;;;;;;;3.95;1.40;;;;;;;9.37;87.83;95682.06;2065651;28;20054;-60
2023/08/07 02:26:09;;;;;;;7.45;1.10;;;;;;;9.36;87.79;95669.19;2065499;28;20409;-59
2023/08/07 02:27:11;;;;;;;2.15;0.90;;;;;;;9.38;87.52;95662.16;2065353;28;20119;-59
2023/08/07 02:28:12;;;;;;;1.23;0.70;;;;;;;9.32;87.52;95658.13;2064942;28;20054;-59
2023/08/07 02:29:14;;;;;;;4.03;1.10;;;;;;;9.36;87.74;95676.97;2065508;28;20058;-59
2023/08/07 02:30:15;;;;;;;3.60;1.42;;;;;;;9.35;87.86;95681.28;2056831;28;20085;-59
2023/08/07 02:31:17;;;;;;;3.67;1.17;;;;;;;9.35;88.19;95675.25;2057042;28;20061;-60
2023/08/07 02:32:18;;;;;;;1.85;1.00;;;;;;;9.35;87.54;95686.47;2065369;28;20061;-59
2023/08/07 02:33:20;;;;;;;3.58;1.10;;;;;;;9.35;87.41;95662.31;2065585;28;20046;-59
2023/08/07 02:34:22;;;;;;;1.90;0.90;;;;;;;9.39;86.71;95682.00;2065305;28;20062;-59
2023/08/07 02:35:25;;;;;;;1.63;1.10;;;;;;;9.42;86.06;95679.25;2065009;28;20042;-59
2023/08/07 02:36:34;;;;;;;1.42;0.98;;;;;;;9.43;87.09;95657.59;2065277;28;20054;-59
2023/08/07 02:37:35;;;;;;;2.95;1.10;;;;;;;9.41;87.10;95682.75;2056162;28;20440;-59
2023/08/07 02:38:38;;;;;;;4.80;1.25;;;;;;;9.40;86.88;95676.72;2057080;28;20120;-59
2023/08/07 02:39:39;;;;;;;2.47;1.00;;;;;;;9.37;87.13;95681.22;2065537;28;20054;-59
2023/08/07 02:40:40;;;;;;;2.13;0.95;;;;;;;9.37;87.16;95684.66;2065356;28;20061;-59
2023/08/07 02:41:42;;;;;;;4.63;1.10;;;;;;;9.37;87.63;95687.25;2065439;28;20077;-59
2023/08/07 02:42:44;;;;;;;3.47;1.05;;;;;;;9.39;87.31;95684.59;2065470;28;20061;-60
2023/08/07 02:43:45;;;;;;;3.58;1.10;;;;;;;9.39;87.53;95685.41;2065418;28;20054;-60
2023/08/07 02:44:46;;;;;;;2.45;1.38;;;;;;;9.40;87.21;95691.44;2064716;28;20058;-60
2023/08/07 02:45:48;;;;;;;2.15;1.17;;;;;;;9.41;87.00;95693.97;2056128;28;20136;-59
2023/08/07 02:46:49;;;;;;;1.20;0.70;;;;;;;9.42;86.91;95685.28;2056731;28;20057;-59
2023/08/07 02:47:51;;;;;;;2.75;1.15;;;;;;;9.45;86.46;95692.06;2064919;28;20054;-59
2023/08/07 02:48:53;;;;;;;2.55;0.95;;;;;;;9.40;86.55;95675.88;2066619;28;20138;-59
2023/08/07 02:49:54;;;;;;;3.58;1.35;;;;;;;9.44;86.68;95686.03;2066549;28;20043;-59
2023/08/07 02:50:56;;;;;;;1.88;1.02;;;;;;;9.47;86.45;95703.22;2067417;28;20061;-59
2023/08/07 02:51:57;;;;;;;2.38;1.20;;;;;;;9.48;85.78;95694.50;2058280;28;20062;-59
2023/08/07 02:52:59;;;;;;;4.13;1.08;;;;;;;9.48;86.71;95694.50;2058309;28;20518;-60
2023/08/07 02:54:01;;;;;;;4.38;1.45;;;;;;;9.44;86.12;95698.16;2066448;28;20070;-60
2023/08/07 02:55:05;;;;;;;2.25;1.30;;;;;;;9.50;86.12;95700.47;2066601;28;20069;-60
2023/08/07 02:56:07;;;;;;;3.55;1.27;;;;;;;9.50;85.64;95696.13;2058552;28;20046;-59
2023/08/07 02:57:08;;;;;;;2.58;1.23;;;;;;;9.56;85.06;95701.91;2058194;28;20055;-60
2023/08/07 02:58:09;;;;;;;2.75;1.30;;;;;;;9.50;85.67;95680.56;2065838;28;20046;-60
2023/08/07 02:59:11;;;;;;;2.38;0.90;;;;;;;9.53;85.94;95676.97;2058109;28;20067;-60
2023/08/07 03:00:13;;;;;;;3.05;1.50;;;;;;;9.53;85.97;95695.13;2057945;28;20094;-59
2023/08/07 03:01:15;;;;;;;3.65;1.75;;;;;;;9.53;85.74;95695.13;2057460;28;20511;-59
2023/08/07 03:02:16;;;;;;;2.28;1.38;;;;;;;9.53;86.06;95682.16;2049943;29;20051;-59
2023/08/07 03:03:17;;;;;;;2.95;1.23;;;;;;;9.57;84.67;95688.03;2050075;29;20063;-58
2023/08/07 03:04:19;;;;;;;3.15;1.25;;;;;;;9.60;85.29;95695.69;2050246;29;20055;-59
2023/08/07 03:05:20;;;;;;;4.57;1.10;;;;;;;9.59;85.28;95681.03;2050559;29;20055;-59
2023/08/07 03:06:21;;;;;;;2.53;1.33;;;;;;;9.58;84.72;95690.56;2049962;29;20059;-59
2023/08/07 03:07:23;;;;;;;2.28;1.10;;;;;;;9.61;84.71;95690.41;2058229;28;20046;-59
2023/08/07 03:08:24;;;;;;;2.65;1.10;;;;;;;9.63;85.19;95700.72;2058190;28;20058;-60
2023/08/07 03:09:26;;;;;;;4.72;1.83;;;;;;;9.60;85.38;95698.28;2058454;28;20411;-60
2023/08/07 03:10:27;;;;;;;2.20;1.05;;;;;;;9.60;85.44;95696.53;2057947;28;20065;-59
2023/08/07 03:11:30;;;;;;;5.82;1.42;;;;;;;9.60;85.56;95691.34;2058290;28;20162;-60
2023/08/07 03:12:32;;;;;;;3.55;1.20;;;;;;;9.61;84.58;95697.34;2050223;29;20061;-60
2023/08/07 03:13:36;;;;;;;2.83;1.60;;;;;;;9.64;84.40;95698.03;2050583;28;20462;-59
2023/08/07 03:14:37;;;;;;;3.78;1.20;;;;;;;9.64;84.52;95692.84;2058876;28;20062;-59
2023/08/07 03:15:38;;;;;;;4.28;1.23;;;;;;;9.65;83.94;95686.78;2058405;28;20062;-59
2023/08/07 03:16:39;;;;;;;4.32;1.00;;;;;;;9.64;84.36;95676.47;2050490;29;20055;-59
2023/08/07 03:17:41;;;;;;;3.05;0.98;;;;;;;9.67;83.63;95691.88;2042330;29;20055;-59
2023/08/07 03:18:43;;;;;;;5.43;1.17;;;;;;;9.68;83.85;95696.16;2042306;29;20055;-60
2023/08/07 03:19:44;;;;;;;2.28;1.05;;;;;;;9.67;83.69;95704.84;2050092;29;20082;-60
2023/08/07 03:20:50;;;;;;;2.30;1.23;;;;;;;9.69;83.45;95705.59;2049264;29;20051;-59
2023/08/07 03:21:51;;;;;;;2.60;1.30;;;;;;;9.70;82.76;95671.84;2042918;29;20051;-60
2023/08/07 03:22:52;;;;;;;2.78;1.30;;;;;;;9.72;82.80;95695.06;2057684;28;20058;-58
2023/08/07 03:23:54;;;;;;;2.90;1.25;;;;;;;9.71;82.79;95706.38;2058150;28;20054;-60
2023/08/07 03:24:55;;;;;;;2.20;0.98;;;;;;;9.72;82.54;95689.91;2058016;28;20042;-59
2023/08/07 03:26:10;;;;;;;3.05;0.93;;;;;;;9.74;82.55;95689.84;2058063;28;20046;-60
2023/08/07 03:27:13;;;;;;;2.25;1.20;;;;;;;9.77;82.80;95710.41;2052331;28;20042;-60
2023/08/07 03:28:14;;;;;;;1.73;0.93;;;;;;;9.76;81.49;95694.03;2057796;28;20509;-59
2023/08/07 03:29:16;;;;;;;4.43;1.25;;;;;;;9.80;81.32;95712.88;2049470;29;20062;-59
2023/08/07 03:30:18;;;;;;;4.78;1.20;;;;;;;9.79;81.97;95701.66;2050267;28;20411;-60
2023/08/07 03:31:20;;;;;;;2.72;1.20;;;;;;;9.81;81.03;95709.34;2049748;29;20062;-59
2023/08/07 03:32:21;;;;;;;2.40;1.20;;;;;;;9.83;80.71;95710.13;2050137;28;20059;-62
2023/08/07 03:33:23;;;;;;;2.15;0.93;;;;;;;9.82;80.96;95711.03;2057107;28;20159;-62
2023/08/07 03:34:25;;;;;;;3.00;1.23;;;;;;;9.83;80.62;95718.72;2050078;29;20082;-63
2023/08/07 03:35:26;;;;;;;1.95;0.90;;;;;;;9.84;80.00;95698.84;2050099;28;20051;-62
2023/08/07 03:36:27;;;;;;;3.03;1.20;;;;;;;9.87;79.97;95714.25;2057910;28;20162;-61
2023/08/07 03:37:28;;;;;;;3.22;1.08;;;;;;;9.86;80.53;95709.97;2050257;29;20062;-62
2023/08/07 03:38:30;;;;;;;3.75;1.05;;;;;;;9.85;79.98;95721.25;2049556;28;20066;-62
2023/08/07 03:39:32;;;;;;;2.45;1.10;;;;;;;9.85;80.68;95708.28;2050164;29;20051;-61
2023/08/07 03:40:34;;;;;;;2.08;1.23;;;;;;;9.82;79.60;95717.06;2058210;28;20063;-62
2023/08/07 03:41:35;;;;;;;3.00;1.10;;;;;;;9.86;80.64;95718.59;2058111;28;20566;-62
2023/08/07 03:42:37;;;;;;;4.60;1.25;;;;;;;9.85;80.33;95716.91;2050229;28;20055;-62
2023/08/07 03:43:38;;;;;;;3.42;1.00;;;;;;;9.86;79.89;95718.59;2049818;29;20047;-61
2023/08/07 03:44:40;;;;;;;6.15;1.00;;;;;;;9.88;79.32;95719.34;2050042;28;20051;-62
2023/08/07 03:45:41;;;;;;;1.77;0.90;;;;;;;9.88;78.42;95711.56;2058962;28;20047;-64
2023/08/07 03:46:42;;;;;;;2.00;1.10;;;;;;;9.90;79.29;95724.47;2058159;28;20047;-61
2023/08/07 03:47:43;;;;;;;4.45;1.02;;;;;;;9.90;78.35;95727.06;2057690;28;20058;-61
2023/08/07 03:48:45;;;;;;;1.55;0.98;;;;;;;9.90;79.58;95733.09;2049605;28;20073;-61
2023/08/07 03:49:46;;;;;;;3.17;1.00;;;;;;;9.91;78.93;95721.78;2050174;29;20063;-61
2023/08/07 03:50:48;;;;;;;8.05;1.58;;;;;;;9.89;77.90;95731.41;2042280;29;20063;-61
2023/08/07 03:51:49;;;;;;;1.88;1.05;;;;;;;9.88;78.69;95708.97;2049712;28;20059;-61
2023/08/07 03:52:50;;;;;;;4.00;0.95;;;;;;;9.87;78.33;95722.88;2058332;28;20061;-61
2023/08/07 03:53:51;;;;;;;1.85;0.85;;;;;;;9.88;78.28;95732.31;2058786;28;20395;-63
2023/08/07 03:54:53;;;;;;;5.38;1.15;;;;;;;9.85;78.80;95716.91;2049698;29;20055;-61
2023/08/07 03:55:54;;;;;;;4.57;1.13;;;;;;;9.86;77.62;95708.22;2050096;29;20067;-61
2023/08/07 03:56:57;;;;;;;4.43;1.23;;;;;;;9.87;78.00;95719.44;2049319;29;20047;-61
2023/08/07 03:57:58;;;;;;;2.65;1.20;;;;;;;9.86;78.27;95726.38;2050128;29;20059;-61
2023/08/07 03:58:59;;;;;;;1.75;0.98;;;;;;;9.83;78.01;95721.31;2058178;28;20054;-60
2023/08/07 04:00:01;;;;;;;3.65;1.20;;;;;;;9.78;78.49;95702.56;2058348;28;20046;-60
2023/08/07 04:01:12;;;;;;;4.72;1.83;;;;;;;9.87;77.33;95719.44;2063721;28;20057;-61
2023/08/07 04:02:15;;;;;;;2.90;1.10;;;;;;;9.88;77.92;95734.06;2066496;28;20149;-60
2023/08/07 04:03:16;;;;;;;2.55;1.23;;;;;;;9.89;77.31;95749.56;2057226;28;20055;-61
2023/08/07 04:04:17;;;;;;;2.08;1.10;;;;;;;9.90;77.57;95740.88;2050250;28;20051;-61
2023/08/07 04:05:19;;;;;;;2.97;1.08;;;;;;;9.89;78.21;95746.97;2058066;28;20046;-61
2023/08/07 04:06:20;;;;;;;5.45;1.33;;;;;;;9.90;77.88;95743.47;2066654;28;20136;-60
2023/08/07 04:07:22;;;;;;;3.58;1.33;;;;;;;9.89;77.50;95728.81;2057471;28;20057;-61
2023/08/07 04:08:24;;;;;;;2.38;1.10;;;;;;;9.92;77.78;95741.66;2057418;28;20459;-60
2023/08/07 04:09:25;;;;;;;3.15;1.20;;;;;;;9.86;77.81;95739.34;2057555;28;20376;-60
2023/08/07 04:10:26;;;;;;;3.38;0.90;;;;;;;9.91;77.89;95746.91;2058167;28;20047;-60
2023/08/07 04:11:28;;;;;;;2.95;1.10;;;;;;;9.91;77.63;95745.13;2066323;28;20054;-61
2023/08/07 04:12:29;;;;;;;4.75;1.58;;;;;;;9.91;77.72;95742.53;2057354;28;20077;-60
2023/08/07 04:13:31;;;;;;;3.10;1.13;;;;;;;9.92;77.51;95754.63;2058092;28;20373;-61
2023/08/07 04:14:32;;;;;;;2.95;1.10;;;;;;;9.93;76.78;95740.72;2057552;28;20070;-60
2023/08/07 04:15:33;;;;;;;2.70;1.10;;;;;;;9.93;77.49;95750.25;2065800;28;20062;-62
2023/08/07 04:16:36;;;;;;;5.07;1.00;;;;;;;9.92;77.06;95749.44;2057226;28;20138;-63
2023/08/07 04:17:37;;;;;;;1.85;0.68;;;;;;;9.92;77.98;95741.66;2049393;28;20507;-62
2023/08/07 04:18:39;;;;;;;4.05;1.00;;;;;;;9.94;77.91;95749.34;2057833;28;20059;-60
2023/08/07 04:19:40;;;;;;;5.75;1.10;;;;;;;9.93;76.94;95732.94;2057900;28;20050;-60
2023/08/07 04:20:42;;;;;;;3.08;1.40;;;;;;;9.94;77.10;95745.00;2057593;28;20059;-61
2023/08/07 04:21:43;;;;;;;4.35;1.40;;;;;;;9.94;77.72;95749.34;2065912;28;20069;-61
2023/08/07 04:22:44;;;;;;;1.92;1.05;;;;;;;9.92;77.99;95733.88;2057838;28;20053;-61
2023/08/07 04:23:47;;;;;;;2.40;1.20;;;;;;;9.93;77.29;95745.91;2057496;28;20054;-61
2023/08/07 04:24:49;;;;;;;3.20;1.08;;;;;;;9.86;77.29;95741.94;2066366;28;20042;-60
2023/08/07 04:25:50;;;;;;;2.00;0.90;;;;;;;9.90;77.30;95735.69;2066045;28;20063;-60
2023/08/07 04:26:53;;;;;;;2.05;1.02;;;;;;;9.90;77.41;95748.66;2057598;28;20055;-60
2023/08/07 04:27:54;;;;;;;3.50;1.05;;;;;;;9.92;76.90;95749.44;2057406;28;20054;-61
2023/08/07 04:28:56;;;;;;;2.03;0.85;;;;;;;9.91;77.89;95747.72;2065714;28;20046;-61
2023/08/07 04:29:58;;;;;;;3.47;1.30;;;;;;;9.92;78.07;95756.38;2057266;28;20054;-60
2023/08/07 04:30:59;;;;;;;2.38;1.13;;;;;;;9.91;77.36;95752.91;2057467;28;20054;-60
2023/08/07 04:32:00;;;;;;;5.30;1.25;;;;;;;9.90;77.47;95740.88;2065690;28;20047;-62
2023/08/07 04:33:02;;;;;;;5.72;1.67;;;;;;;9.90;76.72;95751.25;2066406;28;20046;-60
2023/08/07 04:34:03;;;;;;;2.42;0.85;;;;;;;9.87;76.55;95756.59;2065611;28;20057;-60
2023/08/07 04:35:05;;;;;;;2.10;1.00;;;;;;;9.84;76.85;95745.53;2066458;28;20101;-60
2023/08/07 04:36:06;;;;;;;2.65;0.98;;;;;;;9.82;77.72;95717.06;2066386;28;20042;-60
2023/08/07 04:37:07;;;;;;;2.13;1.15;;;;;;;9.77;77.82;95750.16;2066422;28;20046;-59
2023/08/07 04:38:09;;;;;;;2.47;1.08;;;;;;;9.71;78.16;95751.28;2066442;28;20046;-61
2023/08/07 04:39:11;;;;;;;2.28;1.38;;;;;;;9.72;78.04;95746.94;2065999;28;20406;-61
2023/08/07 04:40:12;;;;;;;3.35;1.10;;;;;;;9.70;78.37;95754.81;2066447;28;20073;-60
2023/08/07 04:41:14;;;;;;;3.72;0.95;;;;;;;9.67;78.22;95748.91;2066122;28;20065;-60
2023/08/07 04:42:15;;;;;;;3.67;1.77;;;;;;;9.67;78.81;95759.28;2066399;28;20054;-60
2023/08/07 04:43:17;;;;;;;2.70;1.10;;;;;;;9.69;77.08;95758.28;2066379;28;20050;-60
2023/08/07 04:44:18;;;;;;;4.00;1.58;;;;;;;9.76;77.02;95768.41;2066160;28;20050;-60
2023/08/07 04:45:19;;;;;;;2.88;1.05;;;;;;;9.72;77.22;95767.69;2066143;28;20049;-60
2023/08/07 04:46:21;;;;;;;5.10;1.30;;;;;;;9.67;77.69;95764.47;2066274;28;20061;-60
2023/08/07 04:47:22;;;;;;;3.20;1.20;;;;;;;9.70;77.73;95764.31;2066469;28;20398;-60
2023/08/07 04:48:25;;;;;;;3.97;1.42;;;;;;;9.69;78.09;95765.25;2065735;28;20061;-61
2023/08/07 04:49:26;;;;;;;2.13;1.50;;;;;;;9.66;77.70;95770.56;2066355;28;20085;-62
2023/08/07 04:50:27;;;;;;;2.40;0.98;;;;;;;9.69;78.08;95757.47;2066272;28;20504;-61
2023/08/07 04:51:30;;;;;;;2.45;1.00;;;;;;;9.71;77.32;95760.84;2066091;28;20061;-60
2023/08/07 04:52:31;;;;;;;3.72;1.20;;;;;;;9.71;77.36;95766.84;2065802;28;20050;-60
2023/08/07 04:53:32;;;;;;;3.70;1.40;;;;;;;9.72;77.52;95772.88;2065649;28;20415;-60
2023/08/07 04:54:33;;;;;;;2.15;1.00;;;;;;;9.69;77.13;95765.25;2065914;28;20050;-62
2023/08/07 04:55:34;;;;;;;5.15;1.08;;;;;;;9.71;77.14;95769.44;2066209;28;20062;-60